sensor_id;sensor_type;location;lat;lon;timestamp;P1;durP1;ratioP1;P2;durP2;ratioP2
76409;SDS011;65238;42.662;23.280;2023-02-11T00:01:51;27.08;;;13.85;;
76409;SDS011;65238;42.662;23.280;2023-02-11T00:04:17;32.72;;;13.88;;
76409;SDS011;65238;42.662;23.280;2023-02-11T00:06:42;23.88;;;12.05;;
76409;SDS011;65238;42.662;23.280;2023-02-11T00:09:08;32.28;;;12.52;;
76409;SDS011;65238;42.662;23.280;2023-02-11T00:11:34;31.17;;;12.65;;
76409;SDS011;65238;42.662;23.280;2023-02-11T00:14:01;33.08;;;14.23;;
76409;SDS011;65238;42.662;23.280;2023-02-11T00:16:28;32.55;;;13.65;;
76409;SDS011;65238;42.662;23.280;2023-02-11T00:19:00;26.95;;;13.82;;
76409;SDS011;65238;42.662;23.280;2023-02-11T00:21:26;30.55;;;13.63;;
76409;SDS011;65238;42.662;23.280;2023-02-11T00:23:52;35.63;;;14.10;;
76409;SDS011;65238;42.662;23.280;2023-02-11T00:26:26;32.55;;;13.70;;
76409;SDS011;65238;42.662;23.280;2023-02-11T00:28:55;29.95;;;14.32;;
76409;SDS011;65238;42.662;23.280;2023-02-11T00:31:21;28.88;;;13.23;;
76409;SDS011;65238;42.662;23.280;2023-02-11T00:33:59;31.48;;;14.93;;
76409;SDS011;65238;42.662;23.280;2023-02-11T00:36:30;32.55;;;13.48;;
76409;SDS011;65238;42.662;23.280;2023-02-11T00:38:59;36.00;;;15.02;;
76409;SDS011;65238;42.662;23.280;2023-02-11T00:41:43;36.22;;;13.88;;
76409;SDS011;65238;42.662;23.280;2023-02-11T00:44:37;32.83;;;13.20;;
76409;SDS011;65238;42.662;23.280;2023-02-11T00:47:03;33.60;;;12.70;;
76409;SDS011;65238;42.662;23.280;2023-02-11T00:49:28;28.52;;;12.30;;
76409;SDS011;65238;42.662;23.280;2023-02-11T00:51:53;29.33;;;14.02;;
76409;SDS011;65238;42.662;23.280;2023-02-11T00:54:23;34.35;;;13.95;;
76409;SDS011;65238;42.662;23.280;2023-02-11T00:56:49;28.20;;;12.88;;
76409;SDS011;65238;42.662;23.280;2023-02-11T00:59:14;30.17;;;13.07;;
76409;SDS011;65238;42.662;23.280;2023-02-11T01:01:40;32.10;;;13.07;;
76409;SDS011;65238;42.662;23.280;2023-02-11T01:04:11;30.55;;;13.25;;
76409;SDS011;65238;42.662;23.280;2023-02-11T01:06:37;29.00;;;13.50;;
76409;SDS011;65238;42.662;23.280;2023-02-11T01:09:11;31.73;;;13.77;;
76409;SDS011;65238;42.662;23.280;2023-02-11T01:11:36;25.58;;;11.50;;
76409;SDS011;65238;42.662;23.280;2023-02-11T01:14:02;34.92;;;13.80;;
76409;SDS011;65238;42.662;23.280;2023-02-11T01:16:27;32.25;;;12.65;;
76409;SDS011;65238;42.662;23.280;2023-02-11T01:18:53;26.55;;;13.35;;
76409;SDS011;65238;42.662;23.280;2023-02-11T01:21:18;29.60;;;13.07;;
76409;SDS011;65238;42.662;23.280;2023-02-11T01:23:44;27.27;;;12.65;;
76409;SDS011;65238;42.662;23.280;2023-02-11T01:26:09;29.38;;;12.68;;
76409;SDS011;65238;42.662;23.280;2023-02-11T01:28:35;26.13;;;12.57;;
76409;SDS011;65238;42.662;23.280;2023-02-11T01:31:01;34.40;;;14.45;;
76409;SDS011;65238;42.662;23.280;2023-02-11T01:33:30;31.88;;;13.45;;
76409;SDS011;65238;42.662;23.280;2023-02-11T01:35:58;27.58;;;13.20;;
76409;SDS011;65238;42.662;23.280;2023-02-11T01:38:25;30.98;;;13.60;;
76409;SDS011;65238;42.662;23.280;2023-02-11T01:43:23;33.67;;;14.80;;
76409;SDS011;65238;42.662;23.280;2023-02-11T01:45:56;33.50;;;13.70;;
76409;SDS011;65238;42.662;23.280;2023-02-11T01:48:35;30.58;;;14.02;;
76409;SDS011;65238;42.662;23.280;2023-02-11T01:51:08;29.27;;;13.43;;
76409;SDS011;65238;42.662;23.280;2023-02-11T01:53:41;35.17;;;12.77;;
76409;SDS011;65238;42.662;23.280;2023-02-11T01:56:28;34.72;;;13.60;;
76409;SDS011;65238;42.662;23.280;2023-02-11T01:59:21;31.33;;;12.80;;
76409;SDS011;65238;42.662;23.280;2023-02-11T02:02:18;32.95;;;13.80;;
76409;SDS011;65238;42.662;23.280;2023-02-11T02:10:41;31.25;;;13.20;;
76409;SDS011;65238;42.662;23.280;2023-02-11T02:16:29;28.13;;;11.90;;
76409;SDS011;65238;42.662;23.280;2023-02-11T02:37:15;27.45;;;12.73;;
76409;SDS011;65238;42.662;23.280;2023-02-11T02:39:48;25.65;;;12.45;;
76409;SDS011;65238;42.662;23.280;2023-02-11T02:42:14;28.70;;;11.73;;
76409;SDS011;65238;42.662;23.280;2023-02-11T02:44:47;29.42;;;12.00;;
76409;SDS011;65238;42.662;23.280;2023-02-11T02:50:30;27.90;;;11.70;;
76409;SDS011;65238;42.662;23.280;2023-02-11T02:56:39;30.77;;;12.25;;
76409;SDS011;65238;42.662;23.280;2023-02-11T02:59:11;30.45;;;12.60;;
76409;SDS011;65238;42.662;23.280;2023-02-11T03:07:36;28.85;;;12.48;;
76409;SDS011;65238;42.662;23.280;2023-02-11T03:10:20;29.35;;;11.73;;
76409;SDS011;65238;42.662;23.280;2023-02-11T03:12:51;30.65;;;12.30;;
76409;SDS011;65238;42.662;23.280;2023-02-11T03:15:18;27.75;;;12.32;;
76409;SDS011;65238;42.662;23.280;2023-02-11T03:17:46;30.75;;;12.80;;
76409;SDS011;65238;42.662;23.280;2023-02-11T03:20:13;29.45;;;12.52;;
76409;SDS011;65238;42.662;23.280;2023-02-11T03:22:42;30.58;;;12.93;;
76409;SDS011;65238;42.662;23.280;2023-02-11T03:27:38;29.20;;;12.68;;
76409;SDS011;65238;42.662;23.280;2023-02-11T03:30:19;35.97;;;13.80;;
76409;SDS011;65238;42.662;23.280;2023-02-11T03:33:04;31.63;;;12.70;;
76409;SDS011;65238;42.662;23.280;2023-02-11T03:35:48;28.50;;;11.43;;
76409;SDS011;65238;42.662;23.280;2023-02-11T03:38:20;28.77;;;11.85;;
76409;SDS011;65238;42.662;23.280;2023-02-11T03:40:48;27.70;;;12.15;;
76409;SDS011;65238;42.662;23.280;2023-02-11T03:43:19;28.17;;;12.30;;
76409;SDS011;65238;42.662;23.280;2023-02-11T03:45:47;25.60;;;11.77;;
76409;SDS011;65238;42.662;23.280;2023-02-11T03:48:18;28.65;;;11.90;;
76409;SDS011;65238;42.662;23.280;2023-02-11T03:50:53;26.42;;;12.18;;
76409;SDS011;65238;42.662;23.280;2023-02-11T03:53:20;28.95;;;12.88;;
76409;SDS011;65238;42.662;23.280;2023-02-11T03:55:46;30.77;;;13.07;;
76409;SDS011;65238;42.662;23.280;2023-02-11T03:58:12;25.55;;;11.80;;
76409;SDS011;65238;42.662;23.280;2023-02-11T04:00:38;28.27;;;12.25;;
76409;SDS011;65238;42.662;23.280;2023-02-11T04:03:05;30.73;;;12.50;;
76409;SDS011;65238;42.662;23.280;2023-02-11T04:05:31;35.45;;;14.48;;
76409;SDS011;65238;42.662;23.280;2023-02-11T04:07:57;28.38;;;13.18;;
76409;SDS011;65238;42.662;23.280;2023-02-11T04:10:23;32.15;;;14.20;;
76409;SDS011;65238;42.662;23.280;2023-02-11T04:12:48;34.35;;;14.00;;
76409;SDS011;65238;42.662;23.280;2023-02-11T04:15:14;31.63;;;14.35;;
76409;SDS011;65238;42.662;23.280;2023-02-11T04:17:39;27.58;;;12.93;;
76409;SDS011;65238;42.662;23.280;2023-02-11T04:20:05;35.22;;;13.07;;
76409;SDS011;65238;42.662;23.280;2023-02-11T04:22:31;34.58;;;13.70;;
76409;SDS011;65238;42.662;23.280;2023-02-11T04:24:57;35.15;;;14.50;;
76409;SDS011;65238;42.662;23.280;2023-02-11T04:27:22;32.50;;;13.45;;
76409;SDS011;65238;42.662;23.280;2023-02-11T04:29:48;37.58;;;14.90;;
76409;SDS011;65238;42.662;23.280;2023-02-11T04:32:13;39.25;;;16.95;;
76409;SDS011;65238;42.662;23.280;2023-02-11T04:34:39;36.17;;;16.05;;
76409;SDS011;65238;42.662;23.280;2023-02-11T04:37:04;33.60;;;14.23;;
76409;SDS011;65238;42.662;23.280;2023-02-11T04:39:30;30.55;;;14.05;;
76409;SDS011;65238;42.662;23.280;2023-02-11T04:41:55;29.30;;;13.35;;
76409;SDS011;65238;42.662;23.280;2023-02-11T04:44:21;30.80;;;13.25;;
76409;SDS011;65238;42.662;23.280;2023-02-11T04:46:46;28.45;;;12.45;;
76409;SDS011;65238;42.662;23.280;2023-02-11T04:49:12;32.83;;;13.55;;
76409;SDS011;65238;42.662;23.280;2023-02-11T04:51:42;31.42;;;12.90;;
76409;SDS011;65238;42.662;23.280;2023-02-11T04:54:09;29.33;;;12.35;;
76409;SDS011;65238;42.662;23.280;2023-02-11T04:56:35;31.58;;;13.40;;
76409;SDS011;65238;42.662;23.280;2023-02-11T04:59:00;33.45;;;11.77;;
76409;SDS011;65238;42.662;23.280;2023-02-11T05:01:26;32.03;;;14.45;;
76409;SDS011;65238;42.662;23.280;2023-02-11T05:03:52;32.67;;;13.38;;
76409;SDS011;65238;42.662;23.280;2023-02-11T05:06:17;30.50;;;14.23;;
76409;SDS011;65238;42.662;23.280;2023-02-11T05:08:43;32.92;;;13.27;;
76409;SDS011;65238;42.662;23.280;2023-02-11T05:11:13;36.25;;;14.32;;
76409;SDS011;65238;42.662;23.280;2023-02-11T05:13:41;32.05;;;13.85;;
76409;SDS011;65238;42.662;23.280;2023-02-11T05:16:06;29.58;;;12.05;;
76409;SDS011;65238;42.662;23.280;2023-02-11T05:18:31;31.27;;;12.18;;
76409;SDS011;65238;42.662;23.280;2023-02-11T05:20:57;31.08;;;12.52;;
76409;SDS011;65238;42.662;23.280;2023-02-11T05:23:22;40.92;;;14.48;;
76409;SDS011;65238;42.662;23.280;2023-02-11T05:25:48;31.33;;;13.48;;
76409;SDS011;65238;42.662;23.280;2023-02-11T05:28:14;36.42;;;14.88;;
76409;SDS011;65238;42.662;23.280;2023-02-11T05:30:39;28.88;;;13.60;;
76409;SDS011;65238;42.662;23.280;2023-02-11T05:33:04;37.08;;;16.13;;
76409;SDS011;65238;42.662;23.280;2023-02-11T05:35:30;31.85;;;14.27;;
76409;SDS011;65238;42.662;23.280;2023-02-11T05:37:55;35.67;;;14.27;;
76409;SDS011;65238;42.662;23.280;2023-02-11T05:40:27;36.72;;;15.07;;
76409;SDS011;65238;42.662;23.280;2023-02-11T05:42:52;36.60;;;15.43;;
76409;SDS011;65238;42.662;23.280;2023-02-11T05:45:18;29.15;;;13.70;;
76409;SDS011;65238;42.662;23.280;2023-02-11T05:47:43;37.28;;;14.88;;
76409;SDS011;65238;42.662;23.280;2023-02-11T05:50:10;36.55;;;15.30;;
76409;SDS011;65238;42.662;23.280;2023-02-11T05:52:35;33.42;;;15.13;;
76409;SDS011;65238;42.662;23.280;2023-02-11T05:55:01;39.88;;;16.65;;
76409;SDS011;65238;42.662;23.280;2023-02-11T05:57:27;39.65;;;15.80;;
76409;SDS011;65238;42.662;23.280;2023-02-11T05:59:53;39.45;;;14.73;;
76409;SDS011;65238;42.662;23.280;2023-02-11T06:02:18;41.50;;;16.90;;
76409;SDS011;65238;42.662;23.280;2023-02-11T06:04:43;40.85;;;17.38;;
76409;SDS011;65238;42.662;23.280;2023-02-11T06:07:09;37.45;;;16.83;;
76409;SDS011;65238;42.662;23.280;2023-02-11T06:09:37;38.60;;;16.48;;
76409;SDS011;65238;42.662;23.280;2023-02-11T06:12:03;45.15;;;19.58;;
76409;SDS011;65238;42.662;23.280;2023-02-11T06:14:30;41.60;;;16.92;;
76409;SDS011;65238;42.662;23.280;2023-02-11T06:16:57;43.17;;;17.92;;
76409;SDS011;65238;42.662;23.280;2023-02-11T06:19:25;42.00;;;17.55;;
76409;SDS011;65238;42.662;23.280;2023-02-11T06:21:51;46.45;;;19.77;;
76409;SDS011;65238;42.662;23.280;2023-02-11T06:24:17;46.65;;;18.88;;
76409;SDS011;65238;42.662;23.280;2023-02-11T06:26:42;48.45;;;19.83;;
76409;SDS011;65238;42.662;23.280;2023-02-11T06:29:08;46.65;;;20.38;;
76409;SDS011;65238;42.662;23.280;2023-02-11T06:31:33;47.95;;;21.25;;
76409;SDS011;65238;42.662;23.280;2023-02-11T06:34:00;51.83;;;20.95;;
76409;SDS011;65238;42.662;23.280;2023-02-11T06:36:26;49.00;;;20.45;;
76409;SDS011;65238;42.662;23.280;2023-02-11T06:38:51;40.08;;;19.05;;
76409;SDS011;65238;42.662;23.280;2023-02-11T06:41:17;42.97;;;19.95;;
76409;SDS011;65238;42.662;23.280;2023-02-11T06:43:45;45.63;;;19.20;;
76409;SDS011;65238;42.662;23.280;2023-02-11T06:46:11;45.30;;;20.42;;
76409;SDS011;65238;42.662;23.280;2023-02-11T06:48:37;51.00;;;21.58;;
76409;SDS011;65238;42.662;23.280;2023-02-11T06:51:06;51.80;;;22.30;;
76409;SDS011;65238;42.662;23.280;2023-02-11T06:53:34;51.25;;;21.83;;
76409;SDS011;65238;42.662;23.280;2023-02-11T06:56:01;51.17;;;22.88;;
76409;SDS011;65238;42.662;23.280;2023-02-11T06:58:30;50.20;;;21.77;;
76409;SDS011;65238;42.662;23.280;2023-02-11T07:00:56;47.30;;;20.92;;
76409;SDS011;65238;42.662;23.280;2023-02-11T07:03:21;40.80;;;18.80;;
76409;SDS011;65238;42.662;23.280;2023-02-11T07:05:47;39.42;;;18.52;;
76409;SDS011;65238;42.662;23.280;2023-02-11T07:08:12;41.00;;;17.95;;
76409;SDS011;65238;42.662;23.280;2023-02-11T07:10:41;38.53;;;18.50;;
76409;SDS011;65238;42.662;23.280;2023-02-11T07:13:06;40.42;;;17.85;;
76409;SDS011;65238;42.662;23.280;2023-02-11T07:15:32;39.65;;;16.90;;
76409;SDS011;65238;42.662;23.280;2023-02-11T07:17:58;34.63;;;15.98;;
76409;SDS011;65238;42.662;23.280;2023-02-11T07:20:24;37.17;;;16.83;;
76409;SDS011;65238;42.662;23.280;2023-02-11T07:22:49;36.30;;;15.65;;
76409;SDS011;65238;42.662;23.280;2023-02-11T07:25:15;44.88;;;18.13;;
76409;SDS011;65238;42.662;23.280;2023-02-11T07:27:43;38.10;;;17.75;;
76409;SDS011;65238;42.662;23.280;2023-02-11T07:30:08;40.83;;;18.92;;
76409;SDS011;65238;42.662;23.280;2023-02-11T07:32:35;36.75;;;17.58;;
76409;SDS011;65238;42.662;23.280;2023-02-11T07:35:00;39.78;;;17.48;;
76409;SDS011;65238;42.662;23.280;2023-02-11T07:37:26;37.03;;;15.57;;
76409;SDS011;65238;42.662;23.280;2023-02-11T07:39:52;37.08;;;17.08;;
76409;SDS011;65238;42.662;23.280;2023-02-11T07:42:17;34.65;;;16.45;;
76409;SDS011;65238;42.662;23.280;2023-02-11T07:44:43;33.60;;;15.07;;
76409;SDS011;65238;42.662;23.280;2023-02-11T07:47:08;34.15;;;15.85;;
76409;SDS011;65238;42.662;23.280;2023-02-11T07:49:34;35.13;;;16.15;;
76409;SDS011;65238;42.662;23.280;2023-02-11T07:51:59;38.22;;;16.98;;
76409;SDS011;65238;42.662;23.280;2023-02-11T07:54:24;32.03;;;16.13;;
76409;SDS011;65238;42.662;23.280;2023-02-11T07:56:50;32.47;;;16.25;;
76409;SDS011;65238;42.662;23.280;2023-02-11T07:59:15;31.70;;;16.17;;
76409;SDS011;65238;42.662;23.280;2023-02-11T08:01:41;34.75;;;15.73;;
76409;SDS011;65238;42.662;23.280;2023-02-11T08:04:07;37.85;;;17.08;;
76409;SDS011;65238;42.662;23.280;2023-02-11T08:06:33;33.03;;;15.60;;
76409;SDS011;65238;42.662;23.280;2023-02-11T08:09:03;30.77;;;14.63;;
76409;SDS011;65238;42.662;23.280;2023-02-11T08:11:33;30.70;;;14.65;;
76409;SDS011;65238;42.662;23.280;2023-02-11T08:13:58;36.78;;;14.75;;
76409;SDS011;65238;42.662;23.280;2023-02-11T08:16:25;30.48;;;15.32;;
76409;SDS011;65238;42.662;23.280;2023-02-11T08:18:52;32.28;;;15.00;;
76409;SDS011;65238;42.662;23.280;2023-02-11T08:21:19;33.30;;;15.75;;
76409;SDS011;65238;42.662;23.280;2023-02-11T08:23:45;31.58;;;15.80;;
76409;SDS011;65238;42.662;23.280;2023-02-11T08:26:32;28.83;;;14.18;;
76409;SDS011;65238;42.662;23.280;2023-02-11T08:28:59;33.20;;;15.55;;
76409;SDS011;65238;42.662;23.280;2023-02-11T08:31:27;36.97;;;16.75;;
76409;SDS011;65238;42.662;23.280;2023-02-11T08:34:00;34.15;;;16.25;;
76409;SDS011;65238;42.662;23.280;2023-02-11T08:36:27;37.90;;;16.90;;
76409;SDS011;65238;42.662;23.280;2023-02-11T08:41:24;42.17;;;18.10;;
76409;SDS011;65238;42.662;23.280;2023-02-11T08:43:50;43.75;;;18.98;;
76409;SDS011;65238;42.662;23.280;2023-02-11T08:46:17;45.35;;;18.35;;
76409;SDS011;65238;42.662;23.280;2023-02-11T08:48:43;37.63;;;17.77;;
76409;SDS011;65238;42.662;23.280;2023-02-11T08:51:12;40.58;;;18.48;;
76409;SDS011;65238;42.662;23.280;2023-02-11T08:53:38;40.97;;;19.13;;
76409;SDS011;65238;42.662;23.280;2023-02-11T08:56:04;42.75;;;19.27;;
76409;SDS011;65238;42.662;23.280;2023-02-11T08:58:30;41.80;;;20.40;;
76409;SDS011;65238;42.662;23.280;2023-02-11T09:00:56;41.70;;;20.20;;
76409;SDS011;65238;42.662;23.280;2023-02-11T09:03:21;38.63;;;17.95;;
76409;SDS011;65238;42.662;23.280;2023-02-11T09:05:48;39.63;;;18.65;;
76409;SDS011;65238;42.662;23.280;2023-02-11T09:08:16;39.95;;;18.27;;
76409;SDS011;65238;42.662;23.280;2023-02-11T09:10:50;36.00;;;16.80;;
76409;SDS011;65238;42.662;23.280;2023-02-11T09:13:16;37.08;;;17.42;;
76409;SDS011;65238;42.662;23.280;2023-02-11T09:15:44;37.53;;;17.17;;
76409;SDS011;65238;42.662;23.280;2023-02-11T09:18:10;46.83;;;21.08;;
76409;SDS011;65238;42.662;23.280;2023-02-11T09:20:36;34.78;;;17.58;;
76409;SDS011;65238;42.662;23.280;2023-02-11T09:23:01;41.28;;;18.75;;
76409;SDS011;65238;42.662;23.280;2023-02-11T09:25:27;37.08;;;18.17;;
76409;SDS011;65238;42.662;23.280;2023-02-11T09:27:52;39.35;;;17.20;;
76409;SDS011;65238;42.662;23.280;2023-02-11T09:30:20;31.83;;;16.23;;
76409;SDS011;65238;42.662;23.280;2023-02-11T09:32:46;38.72;;;15.65;;
76409;SDS011;65238;42.662;23.280;2023-02-11T09:35:11;35.53;;;16.65;;
76409;SDS011;65238;42.662;23.280;2023-02-11T09:37:37;37.13;;;17.02;;
76409;SDS011;65238;42.662;23.280;2023-02-11T09:40:02;31.25;;;15.23;;
76409;SDS011;65238;42.662;23.280;2023-02-11T09:45:28;35.63;;;17.05;;
76409;SDS011;65238;42.662;23.280;2023-02-11T09:47:55;37.60;;;19.25;;
76409;SDS011;65238;42.662;23.280;2023-02-11T09:53:03;31.92;;;15.43;;
76409;SDS011;65238;42.662;23.280;2023-02-11T09:55:33;36.90;;;17.13;;
76409;SDS011;65238;42.662;23.280;2023-02-11T09:58:04;37.58;;;17.90;;
76409;SDS011;65238;42.662;23.280;2023-02-11T10:03:35;40.92;;;18.63;;
76409;SDS011;65238;42.662;23.280;2023-02-11T10:11:47;36.58;;;14.75;;
76409;SDS011;65238;42.662;23.280;2023-02-11T10:14:22;29.48;;;14.82;;
76409;SDS011;65238;42.662;23.280;2023-02-11T10:22:31;29.08;;;12.68;;
76409;SDS011;65238;42.662;23.280;2023-02-11T10:25:00;27.33;;;13.18;;
76409;SDS011;65238;42.662;23.280;2023-02-11T10:27:31;37.53;;;16.27;;
76409;SDS011;65238;42.662;23.280;2023-02-11T10:30:04;29.83;;;13.88;;
76409;SDS011;65238;42.662;23.280;2023-02-11T10:32:40;29.77;;;14.50;;
76409;SDS011;65238;42.662;23.280;2023-02-11T10:35:19;27.67;;;13.10;;
76409;SDS011;65238;42.662;23.280;2023-02-11T10:37:47;26.52;;;12.68;;
76409;SDS011;65238;42.662;23.280;2023-02-11T10:40:13;30.42;;;12.40;;
76409;SDS011;65238;42.662;23.280;2023-02-11T10:42:40;31.40;;;13.27;;
76409;SDS011;65238;42.662;23.280;2023-02-11T10:45:09;34.20;;;14.55;;
76409;SDS011;65238;42.662;23.280;2023-02-11T10:47:42;30.27;;;13.43;;
76409;SDS011;65238;42.662;23.280;2023-02-11T10:50:27;33.63;;;12.65;;
76409;SDS011;65238;42.662;23.280;2023-02-11T10:53:16;24.63;;;11.93;;
76409;SDS011;65238;42.662;23.280;2023-02-11T10:55:53;23.58;;;11.35;;
76409;SDS011;65238;42.662;23.280;2023-02-11T10:58:27;24.50;;;11.73;;
76409;SDS011;65238;42.662;23.280;2023-02-11T11:00:56;22.80;;;11.45;;
76409;SDS011;65238;42.662;23.280;2023-02-11T11:03:23;24.23;;;11.32;;
76409;SDS011;65238;42.662;23.280;2023-02-11T11:06:00;24.33;;;12.35;;
76409;SDS011;65238;42.662;23.280;2023-02-11T11:11:10;23.60;;;11.40;;
76409;SDS011;65238;42.662;23.280;2023-02-11T11:13:41;22.35;;;10.63;;
76409;SDS011;65238;42.662;23.280;2023-02-11T11:16:21;27.70;;;13.18;;
76409;SDS011;65238;42.662;23.280;2023-02-11T11:21:35;31.27;;;14.48;;
76409;SDS011;65238;42.662;23.280;2023-02-11T11:26:44;21.20;;;10.15;;
76409;SDS011;65238;42.662;23.280;2023-02-11T11:29:18;20.55;;;10.13;;
76409;SDS011;65238;42.662;23.280;2023-02-11T11:31:49;25.00;;;10.43;;
76409;SDS011;65238;42.662;23.280;2023-02-11T11:36:51;24.85;;;10.80;;
76409;SDS011;65238;42.662;23.280;2023-02-11T11:39:18;24.05;;;11.18;;
76409;SDS011;65238;42.662;23.280;2023-02-11T11:44:23;23.58;;;10.75;;
76409;SDS011;65238;42.662;23.280;2023-02-11T11:49:34;23.05;;;10.73;;
76409;SDS011;65238;42.662;23.280;2023-02-11T11:52:17;20.67;;;10.10;;
76409;SDS011;65238;42.662;23.280;2023-02-11T11:54:46;21.52;;;10.32;;
76409;SDS011;65238;42.662;23.280;2023-02-11T11:57:18;20.88;;;10.52;;
76409;SDS011;65238;42.662;23.280;2023-02-11T11:59:47;17.50;;;8.90;;
76409;SDS011;65238;42.662;23.280;2023-02-11T12:02:20;22.02;;;10.52;;
76409;SDS011;65238;42.662;23.280;2023-02-11T12:05:02;17.00;;;8.40;;
76409;SDS011;65238;42.662;23.280;2023-02-11T12:10:10;25.08;;;9.60;;
76409;SDS011;65238;42.662;23.280;2023-02-11T12:35:15;20.92;;;8.98;;
76409;SDS011;65238;42.662;23.280;2023-02-11T12:38:03;19.83;;;9.05;;
76409;SDS011;65238;42.662;23.280;2023-02-11T12:41:17;20.98;;;9.30;;
76409;SDS011;65238;42.662;23.280;2023-02-11T12:43:22;20.95;;;9.85;;
76409;SDS011;65238;42.662;23.280;2023-02-11T12:58:50;20.65;;;9.85;;
76409;SDS011;65238;42.662;23.280;2023-02-11T13:03:58;26.65;;;11.68;;
76409;SDS011;65238;42.662;23.280;2023-02-11T13:06:50;22.70;;;11.07;;
76409;SDS011;65238;42.662;23.280;2023-02-11T13:09:29;22.42;;;9.73;;
76409;SDS011;65238;42.662;23.280;2023-02-11T13:11:59;21.83;;;10.60;;
76409;SDS011;65238;42.662;23.280;2023-02-11T13:14:47;20.85;;;10.40;;
76409;SDS011;65238;42.662;23.280;2023-02-11T13:17:20;18.83;;;9.93;;
76409;SDS011;65238;42.662;23.280;2023-02-11T13:19:53;18.60;;;9.73;;
76409;SDS011;65238;42.662;23.280;2023-02-11T13:22:37;18.50;;;9.52;;
76409;SDS011;65238;42.662;23.280;2023-02-11T13:28:10;21.38;;;9.50;;
76409;SDS011;65238;42.662;23.280;2023-02-11T13:30:41;21.92;;;10.20;;
76409;SDS011;65238;42.662;23.280;2023-02-11T13:33:16;23.20;;;10.50;;
76409;SDS011;65238;42.662;23.280;2023-02-11T13:38:22;20.40;;;10.30;;
76409;SDS011;65238;42.662;23.280;2023-02-11T13:43:24;19.63;;;10.00;;
76409;SDS011;65238;42.662;23.280;2023-02-11T13:46:01;25.30;;;11.68;;
76409;SDS011;65238;42.662;23.280;2023-02-11T13:48:34;21.13;;;10.48;;
76409;SDS011;65238;42.662;23.280;2023-02-11T13:51:07;19.70;;;9.43;;
76409;SDS011;65238;42.662;23.280;2023-02-11T13:56:12;16.73;;;9.35;;
76409;SDS011;65238;42.662;23.280;2023-02-11T13:58:58;18.13;;;8.65;;
76409;SDS011;65238;42.662;23.280;2023-02-11T14:04:34;19.52;;;8.98;;
76409;SDS011;65238;42.662;23.280;2023-02-11T14:07:31;23.35;;;9.77;;
76409;SDS011;65238;42.662;23.280;2023-02-11T14:15:44;18.73;;;9.55;;
76409;SDS011;65238;42.662;23.280;2023-02-11T14:21:13;17.88;;;9.77;;
76409;SDS011;65238;42.662;23.280;2023-02-11T14:23:42;17.10;;;9.55;;
76409;SDS011;65238;42.662;23.280;2023-02-11T14:26:13;22.67;;;10.60;;
76409;SDS011;65238;42.662;23.280;2023-02-11T14:28:45;19.45;;;9.35;;
76409;SDS011;65238;42.662;23.280;2023-02-11T14:34:20;22.08;;;10.95;;
76409;SDS011;65238;42.662;23.280;2023-02-11T14:36:55;23.83;;;11.70;;
76409;SDS011;65238;42.662;23.280;2023-02-11T14:41:55;26.15;;;11.90;;
76409;SDS011;65238;42.662;23.280;2023-02-11T14:44:22;19.92;;;10.80;;
76409;SDS011;65238;42.662;23.280;2023-02-11T14:46:50;21.25;;;10.70;;
76409;SDS011;65238;42.662;23.280;2023-02-11T14:51:51;21.50;;;11.35;;
76409;SDS011;65238;42.662;23.280;2023-02-11T14:54:22;25.45;;;12.07;;
76409;SDS011;65238;42.662;23.280;2023-02-11T14:57:32;27.90;;;12.80;;
76409;SDS011;65238;42.662;23.280;2023-02-11T14:59:51;28.35;;;12.95;;
76409;SDS011;65238;42.662;23.280;2023-02-11T15:02:31;21.60;;;12.00;;
76409;SDS011;65238;42.662;23.280;2023-02-11T15:07:44;28.52;;;12.40;;
76409;SDS011;65238;42.662;23.280;2023-02-11T15:10:16;27.58;;;13.25;;
76409;SDS011;65238;42.662;23.280;2023-02-11T15:12:44;29.55;;;14.85;;
76409;SDS011;65238;42.662;23.280;2023-02-11T15:15:13;27.65;;;13.88;;
76409;SDS011;65238;42.662;23.280;2023-02-11T15:17:39;26.73;;;13.27;;
76409;SDS011;65238;42.662;23.280;2023-02-11T15:20:06;30.10;;;15.27;;
76409;SDS011;65238;42.662;23.280;2023-02-11T15:22:32;30.50;;;15.88;;
76409;SDS011;65238;42.662;23.280;2023-02-11T15:25:11;34.00;;;16.25;;
76409;SDS011;65238;42.662;23.280;2023-02-11T15:27:41;30.35;;;14.68;;
76409;SDS011;65238;42.662;23.280;2023-02-11T15:32:46;29.65;;;13.88;;
76409;SDS011;65238;42.662;23.280;2023-02-11T15:35:26;28.45;;;13.23;;
76409;SDS011;65238;42.662;23.280;2023-02-11T15:37:56;27.48;;;13.27;;
76409;SDS011;65238;42.662;23.280;2023-02-11T15:40:23;34.85;;;15.43;;
76409;SDS011;65238;42.662;23.280;2023-02-11T15:42:52;33.80;;;15.45;;
76409;SDS011;65238;42.662;23.280;2023-02-11T15:47:56;40.28;;;17.52;;
76409;SDS011;65238;42.662;23.280;2023-02-11T15:50:24;33.17;;;15.65;;
76409;SDS011;65238;42.662;23.280;2023-02-11T15:52:50;30.55;;;14.85;;
76409;SDS011;65238;42.662;23.280;2023-02-11T15:55:16;30.77;;;14.50;;
76409;SDS011;65238;42.662;23.280;2023-02-11T15:57:46;27.42;;;13.65;;
76409;SDS011;65238;42.662;23.280;2023-02-11T16:00:16;30.88;;;14.30;;
76409;SDS011;65238;42.662;23.280;2023-02-11T16:02:44;33.95;;;14.93;;
76409;SDS011;65238;42.662;23.280;2023-02-11T16:08:21;30.50;;;15.13;;
76409;SDS011;65238;42.662;23.280;2023-02-11T16:11:01;32.33;;;15.73;;
76409;SDS011;65238;42.662;23.280;2023-02-11T16:13:43;35.30;;;15.68;;
76409;SDS011;65238;42.662;23.280;2023-02-11T16:16:24;34.60;;;16.95;;
76409;SDS011;65238;42.662;23.280;2023-02-11T16:18:53;39.78;;;16.92;;
76409;SDS011;65238;42.662;23.280;2023-02-11T16:21:21;38.70;;;19.02;;
76409;SDS011;65238;42.662;23.280;2023-02-11T16:23:56;43.65;;;20.15;;
76409;SDS011;65238;42.662;23.280;2023-02-11T16:27:23;48.40;;;21.33;;
76409;SDS011;65238;42.662;23.280;2023-02-11T16:29:24;46.55;;;22.27;;
76409;SDS011;65238;42.662;23.280;2023-02-11T16:32:04;53.42;;;23.50;;
76409;SDS011;65238;42.662;23.280;2023-02-11T16:34:31;50.65;;;23.80;;
76409;SDS011;65238;42.662;23.280;2023-02-11T16:36:57;49.88;;;21.58;;
76409;SDS011;65238;42.662;23.280;2023-02-11T16:39:22;48.65;;;23.73;;
76409;SDS011;65238;42.662;23.280;2023-02-11T16:41:48;49.63;;;24.38;;
76409;SDS011;65238;42.662;23.280;2023-02-11T16:44:15;48.58;;;23.35;;
76409;SDS011;65238;42.662;23.280;2023-02-11T16:46:41;57.70;;;26.30;;
76409;SDS011;65238;42.662;23.280;2023-02-11T16:49:08;59.83;;;26.58;;
76409;SDS011;65238;42.662;23.280;2023-02-11T16:51:45;62.13;;;27.50;;
76409;SDS011;65238;42.662;23.280;2023-02-11T16:54:13;58.20;;;26.33;;
76409;SDS011;65238;42.662;23.280;2023-02-11T16:56:40;55.65;;;24.58;;
76409;SDS011;65238;42.662;23.280;2023-02-11T16:59:05;48.47;;;23.30;;
76409;SDS011;65238;42.662;23.280;2023-02-11T17:01:31;58.67;;;25.35;;
76409;SDS011;65238;42.662;23.280;2023-02-11T17:04:00;57.05;;;26.38;;
76409;SDS011;65238;42.662;23.280;2023-02-11T17:06:26;55.45;;;26.70;;
76409;SDS011;65238;42.662;23.280;2023-02-11T17:08:54;53.90;;;24.48;;